sensor_id;sensor_type;location;lat;lon;timestamp;P1;durP1;ratioP1;P2;durP2;ratioP2
43226;SDS011;28839;52.404;9.808;2023-11-21T00:04:08;16.30;;;7.97;;
43226;SDS011;28839;52.404;9.808;2023-11-21T00:17:59;17.20;;;8.43;;
43226;SDS011;28839;52.404;9.808;2023-11-21T00:24:53;20.67;;;10.77;;
43226;SDS011;28839;52.404;9.808;2023-11-21T00:31:47;26.85;;;10.93;;
43226;SDS011;28839;52.404;9.808;2023-11-21T00:38:42;26.00;;;12.63;;
43226;SDS011;28839;52.404;9.808;2023-11-21T00:45:35;27.00;;;11.23;;
43226;SDS011;28839;52.404;9.808;2023-11-21T00:52:29;32.42;;;12.32;;
43226;SDS011;28839;52.404;9.808;2023-11-21T00:59:24;26.17;;;12.30;;
43226;SDS011;28839;52.404;9.808;2023-11-21T01:06:18;27.13;;;12.15;;
43226;SDS011;28839;52.404;9.808;2023-11-21T01:13:12;26.80;;;12.57;;
43226;SDS011;28839;52.404;9.808;2023-11-21T01:20:09;25.08;;;13.62;;
43226;SDS011;28839;52.404;9.808;2023-11-21T01:27:04;29.52;;;13.27;;
43226;SDS011;28839;52.404;9.808;2023-11-21T01:33:59;28.70;;;14.57;;
43226;SDS011;28839;52.404;9.808;2023-11-21T01:40:54;32.08;;;15.40;;
43226;SDS011;28839;52.404;9.808;2023-11-21T01:47:47;31.80;;;15.45;;
43226;SDS011;28839;52.404;9.808;2023-11-21T01:54:41;26.50;;;15.03;;
43226;SDS011;28839;52.404;9.808;2023-11-21T02:01:37;38.40;;;16.05;;
43226;SDS011;28839;52.404;9.808;2023-11-21T02:08:30;34.45;;;15.90;;
43226;SDS011;28839;52.404;9.808;2023-11-21T02:15:25;37.73;;;16.73;;
43226;SDS011;28839;52.404;9.808;2023-11-21T02:22:22;37.28;;;17.40;;
43226;SDS011;28839;52.404;9.808;2023-11-21T02:29:19;41.03;;;20.27;;
43226;SDS011;28839;52.404;9.808;2023-11-21T02:36:14;38.60;;;18.42;;
43226;SDS011;28839;52.404;9.808;2023-11-21T02:43:08;37.30;;;18.75;;
43226;SDS011;28839;52.404;9.808;2023-11-21T02:50:03;36.65;;;17.42;;
43226;SDS011;28839;52.404;9.808;2023-11-21T02:56:58;41.40;;;18.23;;
43226;SDS011;28839;52.404;9.808;2023-11-21T03:03:52;43.38;;;18.35;;
43226;SDS011;28839;52.404;9.808;2023-11-21T03:10:48;44.85;;;19.37;;
43226;SDS011;28839;52.404;9.808;2023-11-21T03:17:42;40.78;;;20.27;;
43226;SDS011;28839;52.404;9.808;2023-11-21T03:24:36;40.90;;;20.35;;
43226;SDS011;28839;52.404;9.808;2023-11-21T03:31:31;40.07;;;19.10;;
43226;SDS011;28839;52.404;9.808;2023-11-21T03:38:25;53.13;;;21.77;;
43226;SDS011;28839;52.404;9.808;2023-11-21T03:45:18;49.97;;;21.70;;
43226;SDS011;28839;52.404;9.808;2023-11-21T03:52:14;51.70;;;21.90;;
43226;SDS011;28839;52.404;9.808;2023-11-21T03:59:08;58.58;;;25.15;;
43226;SDS011;28839;52.404;9.808;2023-11-21T04:06:01;62.58;;;25.15;;
43226;SDS011;28839;52.404;9.808;2023-11-21T04:12:57;64.15;;;25.15;;
43226;SDS011;28839;52.404;9.808;2023-11-21T04:19:50;65.82;;;25.62;;
43226;SDS011;28839;52.404;9.808;2023-11-21T04:26:44;70.80;;;28.05;;
43226;SDS011;28839;52.404;9.808;2023-11-21T04:33:40;66.27;;;26.20;;
43226;SDS011;28839;52.404;9.808;2023-11-21T04:40:33;62.30;;;26.58;;
43226;SDS011;28839;52.404;9.808;2023-11-21T04:47:27;54.50;;;24.98;;
43226;SDS011;28839;52.404;9.808;2023-11-21T04:54:22;62.47;;;25.65;;
43226;SDS011;28839;52.404;9.808;2023-11-21T05:01:16;52.35;;;24.05;;
43226;SDS011;28839;52.404;9.808;2023-11-21T05:08:10;52.13;;;21.73;;
43226;SDS011;28839;52.404;9.808;2023-11-21T05:15:05;50.17;;;22.20;;
43226;SDS011;28839;52.404;9.808;2023-11-21T05:22:01;47.15;;;22.58;;
43226;SDS011;28839;52.404;9.808;2023-11-21T05:28:56;51.85;;;23.05;;
43226;SDS011;28839;52.404;9.808;2023-11-21T05:35:51;41.67;;;19.20;;
43226;SDS011;28839;52.404;9.808;2023-11-21T05:42:45;36.28;;;18.60;;
43226;SDS011;28839;52.404;9.808;2023-11-21T05:49:38;34.58;;;17.05;;
43226;SDS011;28839;52.404;9.808;2023-11-21T05:56:33;31.67;;;16.42;;
43226;SDS011;28839;52.404;9.808;2023-11-21T06:03:27;35.63;;;18.37;;
43226;SDS011;28839;52.404;9.808;2023-11-21T06:10:22;32.28;;;17.33;;
43226;SDS011;28839;52.404;9.808;2023-11-21T06:17:18;31.80;;;15.50;;
43226;SDS011;28839;52.404;9.808;2023-11-21T06:24:12;33.40;;;17.20;;
43226;SDS011;28839;52.404;9.808;2023-11-21T06:31:07;15.52;;;8.60;;
43226;SDS011;28839;52.404;9.808;2023-11-21T06:38:04;17.33;;;9.25;;
43226;SDS011;28839;52.404;9.808;2023-11-21T06:44:57;18.40;;;9.88;;
43226;SDS011;28839;52.404;9.808;2023-11-21T06:51:51;12.13;;;8.27;;
43226;SDS011;28839;52.404;9.808;2023-11-21T06:58:47;12.85;;;8.63;;
43226;SDS011;28839;52.404;9.808;2023-11-21T07:05:41;13.60;;;8.35;;
43226;SDS011;28839;52.404;9.808;2023-11-21T07:12:35;15.02;;;8.73;;
43226;SDS011;28839;52.404;9.808;2023-11-21T07:19:30;14.38;;;8.77;;
43226;SDS011;28839;52.404;9.808;2023-11-21T07:26:24;12.57;;;7.62;;
43226;SDS011;28839;52.404;9.808;2023-11-21T07:33:18;13.53;;;8.37;;
43226;SDS011;28839;52.404;9.808;2023-11-21T07:40:13;11.67;;;7.53;;
43226;SDS011;28839;52.404;9.808;2023-11-21T07:47:08;16.92;;;10.63;;
43226;SDS011;28839;52.404;9.808;2023-11-21T07:54:02;14.35;;;9.07;;
43226;SDS011;28839;52.404;9.808;2023-11-21T08:07:52;21.52;;;12.48;;
43226;SDS011;28839;52.404;9.808;2023-11-21T08:14:46;21.87;;;13.43;;
43226;SDS011;28839;52.404;9.808;2023-11-21T08:21:41;27.52;;;14.00;;
43226;SDS011;28839;52.404;9.808;2023-11-21T08:28:35;18.62;;;11.52;;
43226;SDS011;28839;52.404;9.808;2023-11-21T08:35:29;19.80;;;12.48;;
43226;SDS011;28839;52.404;9.808;2023-11-21T08:42:24;25.85;;;15.98;;
43226;SDS011;28839;52.404;9.808;2023-11-21T08:49:21;20.00;;;12.43;;
43226;SDS011;28839;52.404;9.808;2023-11-21T08:56:15;19.08;;;11.43;;
43226;SDS011;28839;52.404;9.808;2023-11-21T09:03:12;17.65;;;12.65;;
43226;SDS011;28839;52.404;9.808;2023-11-21T09:10:06;15.32;;;11.40;;
43226;SDS011;28839;52.404;9.808;2023-11-21T09:17:01;14.90;;;10.55;;
43226;SDS011;28839;52.404;9.808;2023-11-21T09:23:56;16.05;;;10.20;;
43226;SDS011;28839;52.404;9.808;2023-11-21T09:30:50;16.15;;;9.95;;
43226;SDS011;28839;52.404;9.808;2023-11-21T09:37:44;15.23;;;9.68;;
43226;SDS011;28839;52.404;9.808;2023-11-21T09:44:42;12.57;;;8.55;;
43226;SDS011;28839;52.404;9.808;2023-11-21T09:51:42;15.13;;;8.75;;
43226;SDS011;28839;52.404;9.808;2023-11-21T09:58:36;16.00;;;8.07;;
43226;SDS011;28839;52.404;9.808;2023-11-21T10:05:32;14.07;;;6.67;;
43226;SDS011;28839;52.404;9.808;2023-11-21T10:12:26;12.20;;;8.15;;
43226;SDS011;28839;52.404;9.808;2023-11-21T10:19:21;9.95;;;7.22;;
43226;SDS011;28839;52.404;9.808;2023-11-21T10:33:12;11.85;;;8.10;;
43226;SDS011;28839;52.404;9.808;2023-11-21T10:40:07;9.70;;;7.60;;
43226;SDS011;28839;52.404;9.808;2023-11-21T10:47:05;11.00;;;7.57;;
43226;SDS011;28839;52.404;9.808;2023-11-21T10:54:04;10.43;;;6.87;;
43226;SDS011;28839;52.404;9.808;2023-11-21T11:00:57;10.18;;;7.22;;
43226;SDS011;28839;52.404;9.808;2023-11-21T11:07:56;9.90;;;7.15;;
43226;SDS011;28839;52.404;9.808;2023-11-21T11:14:53;10.02;;;6.37;;
43226;SDS011;28839;52.404;9.808;2023-11-21T11:21:50;9.73;;;6.97;;
43226;SDS011;28839;52.404;9.808;2023-11-21T11:29:08;11.10;;;7.03;;
43226;SDS011;28839;52.404;9.808;2023-11-21T11:36:10;8.32;;;5.93;;
43226;SDS011;28839;52.404;9.808;2023-11-21T11:43:10;9.70;;;6.22;;
43226;SDS011;28839;52.404;9.808;2023-11-21T11:50:05;7.50;;;5.85;;
43226;SDS011;28839;52.404;9.808;2023-11-21T11:57:05;11.80;;;6.30;;
43226;SDS011;28839;52.404;9.808;2023-11-21T12:11:25;7.43;;;5.70;;
43226;SDS011;28839;52.404;9.808;2023-11-21T12:18:23;11.30;;;5.75;;
43226;SDS011;28839;52.404;9.808;2023-11-21T12:25:20;6.40;;;5.12;;
43226;SDS011;28839;52.404;9.808;2023-11-21T12:32:16;6.40;;;5.40;;
43226;SDS011;28839;52.404;9.808;2023-11-21T12:39:10;6.55;;;5.18;;
43226;SDS011;28839;52.404;9.808;2023-11-21T12:46:04;9.85;;;6.07;;
43226;SDS011;28839;52.404;9.808;2023-11-21T12:59:57;9.23;;;5.97;;
43226;SDS011;28839;52.404;9.808;2023-11-21T13:06:52;7.47;;;5.90;;
43226;SDS011;28839;52.404;9.808;2023-11-21T13:13:51;9.10;;;6.43;;
43226;SDS011;28839;52.404;9.808;2023-11-21T13:20:45;7.32;;;5.75;;
43226;SDS011;28839;52.404;9.808;2023-11-21T13:27:39;9.00;;;6.50;;
43226;SDS011;28839;52.404;9.808;2023-11-21T13:34:36;9.07;;;6.93;;
43226;SDS011;28839;52.404;9.808;2023-11-21T13:41:30;8.85;;;6.75;;
43226;SDS011;28839;52.404;9.808;2023-11-21T13:48:24;6.82;;;5.45;;
43226;SDS011;28839;52.404;9.808;2023-11-21T13:55:25;6.55;;;4.80;;
43226;SDS011;28839;52.404;9.808;2023-11-21T14:02:19;6.87;;;4.93;;
43226;SDS011;28839;52.404;9.808;2023-11-21T14:09:20;6.57;;;4.87;;
43226;SDS011;28839;52.404;9.808;2023-11-21T14:16:19;7.50;;;5.65;;
43226;SDS011;28839;52.404;9.808;2023-11-21T14:23:13;5.22;;;4.53;;
43226;SDS011;28839;52.404;9.808;2023-11-21T14:30:08;8.63;;;5.57;;
43226;SDS011;28839;52.404;9.808;2023-11-21T14:37:06;7.03;;;4.55;;
43226;SDS011;28839;52.404;9.808;2023-11-21T14:43:59;6.20;;;4.37;;
43226;SDS011;28839;52.404;9.808;2023-11-21T14:50:55;7.70;;;5.47;;
43226;SDS011;28839;52.404;9.808;2023-11-21T14:58:04;7.60;;;6.32;;
43226;SDS011;28839;52.404;9.808;2023-11-21T15:05:02;9.15;;;6.10;;
43226;SDS011;28839;52.404;9.808;2023-11-21T15:11:58;6.90;;;5.32;;
43226;SDS011;28839;52.404;9.808;2023-11-21T15:19:03;8.05;;;5.30;;
43226;SDS011;28839;52.404;9.808;2023-11-21T15:25:57;9.18;;;5.65;;
43226;SDS011;28839;52.404;9.808;2023-11-21T15:32:51;8.38;;;6.05;;
43226;SDS011;28839;52.404;9.808;2023-11-21T15:39:47;8.50;;;5.97;;
43226;SDS011;28839;52.404;9.808;2023-11-21T15:46:40;54.33;;;25.60;;
43226;SDS011;28839;52.404;9.808;2023-11-21T15:53:34;7.35;;;5.43;;
43226;SDS011;28839;52.404;9.808;2023-11-21T16:00:29;8.38;;;5.75;;
43226;SDS011;28839;52.404;9.808;2023-11-21T16:07:23;9.65;;;5.87;;
43226;SDS011;28839;52.404;9.808;2023-11-21T16:14:17;7.77;;;5.73;;
43226;SDS011;28839;52.404;9.808;2023-11-21T16:21:13;8.43;;;5.63;;
43226;SDS011;28839;52.404;9.808;2023-11-21T16:28:07;10.18;;;6.80;;
43226;SDS011;28839;52.404;9.808;2023-11-21T16:35:01;10.45;;;6.87;;
43226;SDS011;28839;52.404;9.808;2023-11-21T16:41:56;11.73;;;5.90;;
43226;SDS011;28839;52.404;9.808;2023-11-21T16:48:50;8.05;;;5.70;;
43226;SDS011;28839;52.404;9.808;2023-11-21T16:55:44;7.20;;;5.03;;
43226;SDS011;28839;52.404;9.808;2023-11-21T17:02:39;9.10;;;5.40;;
43226;SDS011;28839;52.404;9.808;2023-11-21T17:09:33;8.25;;;5.32;;
43226;SDS011;28839;52.404;9.808;2023-11-21T17:16:27;10.18;;;6.68;;
43226;SDS011;28839;52.404;9.808;2023-11-21T17:23:22;9.30;;;7.43;;
43226;SDS011;28839;52.404;9.808;2023-11-21T17:30:16;6.30;;;5.60;;
43226;SDS011;28839;52.404;9.808;2023-11-21T17:37:11;10.82;;;8.93;;
43226;SDS011;28839;52.404;9.808;2023-11-21T17:44:06;61.42;;;43.17;;
43226;SDS011;28839;52.404;9.808;2023-11-21T17:51:00;28.62;;;21.48;;
43226;SDS011;28839;52.404;9.808;2023-11-21T17:57:54;7.53;;;5.78;;
43226;SDS011;28839;52.404;9.808;2023-11-21T18:04:49;5.97;;;4.30;;
43226;SDS011;28839;52.404;9.808;2023-11-21T18:11:43;21.15;;;19.30;;
43226;SDS011;28839;52.404;9.808;2023-11-21T18:18:37;14.63;;;13.30;;
43226;SDS011;28839;52.404;9.808;2023-11-21T18:25:32;14.52;;;12.90;;
43226;SDS011;28839;52.404;9.808;2023-11-21T18:39:20;14.82;;;13.45;;
43226;SDS011;28839;52.404;9.808;2023-11-21T18:46:15;7.05;;;5.22;;
43226;SDS011;28839;52.404;9.808;2023-11-21T18:53:08;8.30;;;5.40;;
43226;SDS011;28839;52.404;9.808;2023-11-21T19:00:03;7.70;;;5.73;;
43226;SDS011;28839;52.404;9.808;2023-11-21T19:07:05;7.07;;;5.30;;
43226;SDS011;28839;52.404;9.808;2023-11-21T19:13:59;7.28;;;5.78;;
43226;SDS011;28839;52.404;9.808;2023-11-21T19:20:53;9.82;;;6.25;;
43226;SDS011;28839;52.404;9.808;2023-11-21T19:27:48;12.05;;;7.35;;
43226;SDS011;28839;52.404;9.808;2023-11-21T19:34:42;13.75;;;9.63;;
43226;SDS011;28839;52.404;9.808;2023-11-21T19:41:36;10.03;;;6.10;;
43226;SDS011;28839;52.404;9.808;2023-11-21T19:48:32;11.25;;;7.68;;
43226;SDS011;28839;52.404;9.808;2023-11-21T19:55:27;7.28;;;5.93;;
43226;SDS011;28839;52.404;9.808;2023-11-21T20:02:20;9.45;;;4.53;;
43226;SDS011;28839;52.404;9.808;2023-11-21T20:09:16;6.03;;;4.90;;
43226;SDS011;28839;52.404;9.808;2023-11-21T20:16:09;6.28;;;4.45;;
43226;SDS011;28839;52.404;9.808;2023-11-21T20:23:03;7.18;;;4.40;;
43226;SDS011;28839;52.404;9.808;2023-11-21T20:29:58;7.78;;;4.10;;
43226;SDS011;28839;52.404;9.808;2023-11-21T20:36:52;6.35;;;3.78;;
43226;SDS011;28839;52.404;9.808;2023-11-21T20:43:46;5.87;;;4.03;;
43226;SDS011;28839;52.404;9.808;2023-11-21T20:50:41;5.37;;;4.10;;
43226;SDS011;28839;52.404;9.808;2023-11-21T20:57:35;6.75;;;4.68;;
43226;SDS011;28839;52.404;9.808;2023-11-21T21:04:29;7.57;;;4.43;;
43226;SDS011;28839;52.404;9.808;2023-11-21T21:11:25;6.55;;;4.18;;
43226;SDS011;28839;52.404;9.808;2023-11-21T21:18:22;5.37;;;3.40;;
43226;SDS011;28839;52.404;9.808;2023-11-21T21:25:18;6.28;;;4.15;;
43226;SDS011;28839;52.404;9.808;2023-11-21T21:32:13;7.30;;;4.40;;
43226;SDS011;28839;52.404;9.808;2023-11-21T21:39:07;6.55;;;4.25;;
43226;SDS011;28839;52.404;9.808;2023-11-21T21:46:02;7.95;;;3.72;;
43226;SDS011;28839;52.404;9.808;2023-11-21T21:52:57;5.70;;;3.63;;
43226;SDS011;28839;52.404;9.808;2023-11-21T21:59:51;7.70;;;3.78;;
43226;SDS011;28839;52.404;9.808;2023-11-21T22:06:46;8.95;;;5.35;;
43226;SDS011;28839;52.404;9.808;2023-11-21T22:13:41;6.87;;;4.33;;
43226;SDS011;28839;52.404;9.808;2023-11-21T22:20:35;9.75;;;4.30;;
43226;SDS011;28839;52.404;9.808;2023-11-21T22:27:29;8.00;;;4.80;;
43226;SDS011;28839;52.404;9.808;2023-11-21T22:34:24;7.07;;;3.95;;
43226;SDS011;28839;52.404;9.808;2023-11-21T22:41:25;7.20;;;4.60;;
43226;SDS011;28839;52.404;9.808;2023-11-21T22:48:19;6.90;;;4.07;;
43226;SDS011;28839;52.404;9.808;2023-11-21T22:55:14;9.13;;;5.05;;
43226;SDS011;28839;52.404;9.808;2023-11-21T23:02:08;7.53;;;4.75;;
43226;SDS011;28839;52.404;9.808;2023-11-21T23:09:02;9.48;;;5.62;;
43226;SDS011;28839;52.404;9.808;2023-11-21T23:15:57;9.77;;;5.28;;
43226;SDS011;28839;52.404;9.808;2023-11-21T23:22:50;27.35;;;12.68;;
43226;SDS011;28839;52.404;9.808;2023-11-21T23:29:44;8.00;;;5.35;;
43226;SDS011;28839;52.404;9.808;2023-11-21T23:36:43;10.82;;;6.75;;
43226;SDS011;28839;52.404;9.808;2023-11-21T23:43:37;7.12;;;5.05;;
43226;SDS011;28839;52.404;9.808;2023-11-21T23:50:31;7.60;;;5.30;;
43226;SDS011;28839;52.404;9.808;2023-11-21T23:57:26;8.18;;;4.97;;
